createdAt,value
2018-05-01T00:00:26.956Z,0.00
2018-05-01T00:01:26.937Z,0.00
2018-05-01T00:02:26.924Z,0.00
2018-05-01T00:03:26.899Z,0.00
2018-05-01T00:04:26.885Z,0.00
2018-05-01T00:05:26.863Z,0.00
2018-05-01T00:06:26.849Z,0.00
2018-05-01T00:07:26.828Z,0.00
2018-05-01T00:08:26.813Z,0.00
2018-05-01T00:09:26.794Z,0.00
2018-05-01T00:10:26.784Z,0.00
2018-05-01T00:11:26.758Z,0.00
2018-05-01T00:12:26.740Z,0.00
2018-05-01T00:13:26.719Z,0.00
2018-05-01T00:14:26.703Z,0.00
2018-05-01T00:15:26.687Z,0.00
2018-05-01T00:16:26.668Z,0.00
2018-05-01T00:17:26.647Z,0.00
2018-05-01T00:18:26.629Z,0.00
2018-05-01T00:19:26.624Z,0.00
2018-05-01T00:20:26.595Z,0.00
2018-05-01T00:21:26.574Z,0.00
2018-05-01T00:22:26.558Z,0.00
2018-05-01T00:23:26.540Z,0.00
2018-05-01T00:24:26.522Z,0.00
2018-05-01T00:25:26.503Z,0.00
2018-05-01T00:26:26.485Z,0.00
2018-05-01T00:27:26.472Z,0.00
2018-05-01T00:28:26.452Z,0.00
2018-05-01T00:29:26.429Z,0.00
2018-05-01T00:30:26.415Z,0.00
2018-05-01T00:31:26.395Z,0.00
2018-05-01T00:32:26.379Z,0.00
2018-05-01T00:33:26.359Z,0.00
2018-05-01T00:34:26.343Z,0.00
2018-05-01T00:35:26.324Z,0.00
2018-05-01T00:36:26.309Z,0.00
2018-05-01T00:37:26.290Z,0.00
2018-05-01T00:38:26.270Z,0.00
2018-05-01T00:39:26.253Z,0.00
2018-05-01T00:40:26.235Z,0.00
2018-05-01T00:41:26.217Z,0.00
2018-05-01T00:42:26.199Z,0.00
2018-05-01T00:43:26.181Z,0.00
2018-05-01T00:44:26.168Z,0.00
2018-05-01T00:45:26.149Z,0.00
2018-05-01T00:46:26.130Z,0.00
2018-05-01T00:47:26.117Z,0.00
2018-05-01T00:48:26.094Z,0.00
2018-05-01T00:49:26.074Z,0.00
2018-05-01T00:50:26.060Z,0.00
2018-05-01T00:51:26.055Z,0.00
2018-05-01T00:52:26.023Z,0.00
2018-05-01T00:53:26.005Z,0.00
2018-05-01T00:54:25.988Z,0.00
2018-05-01T00:55:25.972Z,0.00
2018-05-01T00:56:25.955Z,0.00
2018-05-01T00:57:25.939Z,0.00
2018-05-01T00:58:25.921Z,0.00
2018-05-01T00:59:25.905Z,0.00
2018-05-01T01:00:25.886Z,0.00
2018-05-01T01:01:25.865Z,0.00
2018-05-01T01:02:25.849Z,0.00
2018-05-01T01:03:25.831Z,0.00
2018-05-01T01:04:25.834Z,0.00
2018-05-01T01:05:25.800Z,0.00
2018-05-01T01:06:25.780Z,0.00
2018-05-01T01:07:25.768Z,0.00
2018-05-01T01:08:25.745Z,0.00
2018-05-01T01:09:25.727Z,0.00
2018-05-01T01:10:25.711Z,0.00
2018-05-01T01:11:25.693Z,0.00
2018-05-01T01:12:25.676Z,0.00
2018-05-01T01:13:25.659Z,0.00
2018-05-01T01:14:25.643Z,0.00
2018-05-01T01:15:25.625Z,0.00
2018-05-01T01:16:25.608Z,0.00
2018-05-01T01:17:25.592Z,0.00
2018-05-01T01:18:25.574Z,0.00
2018-05-01T01:19:25.559Z,0.00
2018-05-01T01:20:25.540Z,0.00
2018-05-01T01:21:25.522Z,0.00
2018-05-01T01:22:25.504Z,0.00
2018-05-01T01:23:25.490Z,0.00
2018-05-01T01:24:25.476Z,0.00
2018-05-01T01:25:25.455Z,0.00
2018-05-01T01:26:25.439Z,0.00
2018-05-01T01:27:25.419Z,0.00
2018-05-01T01:28:25.405Z,0.00
2018-05-01T01:29:25.388Z,0.00
2018-05-01T01:30:25.371Z,0.00
2018-05-01T01:31:25.355Z,0.00
2018-05-01T01:32:25.338Z,0.00
2018-05-01T01:33:25.321Z,0.00
2018-05-01T01:34:25.306Z,0.00
2018-05-01T01:35:25.286Z,0.00
2018-05-01T01:36:25.272Z,0.00
2018-05-01T01:37:25.254Z,0.00
2018-05-01T01:38:25.237Z,0.00
2018-05-01T01:39:25.232Z,0.00
2018-05-01T01:40:25.203Z,0.00
2018-05-01T01:41:25.186Z,0.00
2018-05-01T01:42:25.170Z,0.00
2018-05-01T01:43:25.154Z,0.00
2018-05-01T01:44:25.139Z,0.00
2018-05-01T01:45:25.121Z,0.00
2018-05-01T01:46:25.104Z,0.00
2018-05-01T01:47:25.088Z,0.00
2018-05-01T01:48:25.075Z,0.00
2018-05-01T01:49:25.056Z,0.00
2018-05-01T01:50:25.038Z,0.00
2018-05-01T01:51:25.023Z,0.00
2018-05-01T01:52:25.006Z,0.00
2018-05-01T01:53:24.989Z,0.00
2018-05-01T01:54:24.971Z,0.00
2018-05-01T01:55:24.961Z,0.00
2018-05-01T01:56:24.940Z,0.00
2018-05-01T01:57:24.927Z,0.00
2018-05-01T01:58:24.906Z,0.00
2018-05-01T01:59:24.890Z,0.00
2018-05-01T02:00:24.874Z,0.00
2018-05-01T02:01:24.867Z,0.00
2018-05-01T02:02:24.848Z,0.00
2018-05-01T02:03:24.824Z,0.00
2018-05-01T02:04:24.807Z,0.00
2018-05-01T02:05:24.791Z,0.00
2018-05-01T02:06:24.776Z,0.00
2018-05-01T02:07:24.770Z,0.00
2018-05-01T02:08:24.742Z,0.00
2018-05-01T02:09:24.727Z,0.00
2018-05-01T02:10:24.710Z,0.00
2018-05-01T02:11:24.695Z,0.00
2018-05-01T02:12:24.678Z,0.00
2018-05-01T02:13:24.659Z,0.00
2018-05-01T02:14:24.642Z,0.00
2018-05-01T02:15:24.630Z,0.00
2018-05-01T02:16:24.616Z,0.00
2018-05-01T02:17:24.594Z,0.00
2018-05-01T02:18:24.579Z,0.00
2018-05-01T02:19:24.563Z,0.00
2018-05-01T02:20:24.548Z,0.00
2018-05-01T02:21:24.531Z,0.00
2018-05-01T02:22:24.513Z,0.00
2018-05-01T02:23:24.497Z,0.00
2018-05-01T02:24:24.483Z,0.00
2018-05-01T02:25:24.464Z,0.00
2018-05-01T02:26:24.449Z,0.00
2018-05-01T02:27:24.433Z,0.00
2018-05-01T02:28:24.416Z,0.00
2018-05-01T02:29:24.402Z,0.00
2018-05-01T02:30:24.386Z,0.00
2018-05-01T02:31:24.369Z,0.00
2018-05-01T02:32:24.354Z,0.00
2018-05-01T02:33:24.337Z,0.00
2018-05-01T02:34:24.319Z,0.00
2018-05-01T02:35:24.304Z,0.00
2018-05-01T02:36:24.292Z,0.00
2018-05-01T02:37:24.271Z,0.00
2018-05-01T02:38:24.255Z,0.00
2018-05-01T02:39:24.244Z,0.00
2018-05-01T02:40:24.222Z,0.00
2018-05-01T02:41:24.204Z,0.00
2018-05-01T02:42:24.189Z,0.00
2018-05-01T02:43:24.174Z,0.00
2018-05-01T02:44:24.159Z,0.00
2018-05-01T02:45:24.139Z,0.00
2018-05-01T02:46:24.126Z,0.00
2018-05-01T02:47:24.110Z,0.00
2018-05-01T02:48:24.093Z,0.00
2018-05-01T02:49:24.076Z,0.00
2018-05-01T02:50:24.062Z,0.00
2018-05-01T02:51:24.049Z,0.00
2018-05-01T02:52:24.029Z,0.00
2018-05-01T02:53:24.012Z,0.00
2018-05-01T02:54:24.002Z,0.00
2018-05-01T02:55:23.987Z,0.00
2018-05-01T02:56:23.967Z,0.00
2018-05-01T02:57:23.949Z,0.00
2018-05-01T02:58:23.933Z,0.00
2018-05-01T02:59:23.922Z,0.00
2018-05-01T03:00:23.905Z,0.00
2018-05-01T03:01:23.884Z,0.00
2018-05-01T03:02:23.872Z,0.00
2018-05-01T03:03:23.852Z,0.00
2018-05-01T03:04:23.839Z,0.00
2018-05-01T03:05:23.820Z,0.00
2018-05-01T03:06:23.802Z,0.00
2018-05-01T03:07:23.791Z,0.00
2018-05-01T03:08:23.771Z,0.00
2018-05-01T03:09:23.754Z,0.00
2018-05-01T03:10:23.740Z,0.00
2018-05-01T03:11:23.723Z,0.00
2018-05-01T03:12:23.705Z,0.00
2018-05-01T03:13:23.697Z,0.00
2018-05-01T03:14:23.673Z,0.00
2018-05-01T03:15:23.657Z,0.00
2018-05-01T03:16:23.644Z,0.00
2018-05-01T03:17:23.630Z,0.00
2018-05-01T03:18:23.612Z,0.00
2018-05-01T03:19:23.594Z,0.00
2018-05-01T03:20:23.581Z,0.00
2018-05-01T03:21:23.568Z,0.00
2018-05-01T03:22:23.547Z,0.00
2018-05-01T03:23:23.537Z,0.00
2018-05-01T03:24:23.516Z,0.00
2018-05-01T03:25:23.533Z,0.00
2018-05-01T03:26:23.483Z,0.00
2018-05-01T03:27:23.470Z,0.00
2018-05-01T03:28:23.449Z,0.00
2018-05-01T03:29:23.431Z,0.00
2018-05-01T03:30:23.416Z,0.00
2018-05-01T03:31:23.400Z,0.00
2018-05-01T03:32:23.385Z,0.00
2018-05-01T03:33:23.369Z,0.00
2018-05-01T03:34:23.352Z,0.00
2018-05-01T03:35:23.337Z,0.00
2018-05-01T03:36:23.320Z,5.63
2018-05-01T03:37:23.304Z,5.63
2018-05-01T03:38:23.287Z,5.63
2018-05-01T03:39:23.273Z,5.63
2018-05-01T03:40:23.257Z,5.63
2018-05-01T03:41:23.240Z,11.25
2018-05-01T03:42:23.226Z,11.25
2018-05-01T03:43:23.206Z,11.25
2018-05-01T03:44:23.190Z,11.25
2018-05-01T03:45:23.174Z,16.88
2018-05-01T03:46:23.158Z,16.88
2018-05-01T03:47:23.151Z,11.25
2018-05-01T03:48:23.130Z,16.88
2018-05-01T03:49:23.108Z,16.88
2018-05-01T03:50:23.101Z,16.88
2018-05-01T03:51:23.143Z,16.88
2018-05-01T03:52:23.061Z,16.88
2018-05-01T03:53:23.044Z,16.88
2018-05-01T03:54:23.029Z,16.88
2018-05-01T03:55:23.011Z,16.88
2018-05-01T03:56:22.999Z,22.50
2018-05-01T03:57:22.980Z,22.50
2018-05-01T03:58:22.968Z,28.13
2018-05-01T03:59:22.948Z,28.13
2018-05-01T04:00:22.938Z,28.13
2018-05-01T04:01:22.918Z,33.75
2018-05-01T04:02:23.034Z,33.75
2018-05-01T04:03:22.883Z,33.75
2018-05-01T04:04:22.870Z,33.75
2018-05-01T04:05:22.851Z,33.75
2018-05-01T04:06:22.835Z,33.75
2018-05-01T04:07:22.819Z,33.75
2018-05-01T04:08:22.805Z,33.75
2018-05-01T04:09:22.787Z,33.75
2018-05-01T04:10:22.772Z,33.75
2018-05-01T04:11:22.755Z,33.75
2018-05-01T04:12:22.737Z,33.75
2018-05-01T04:13:22.723Z,33.75
2018-05-01T04:14:22.710Z,33.75
2018-05-01T04:15:22.689Z,33.75
2018-05-01T04:16:22.676Z,28.13
2018-05-01T04:17:22.658Z,28.13
2018-05-01T04:18:22.698Z,33.75
2018-05-01T04:19:22.628Z,33.75
2018-05-01T04:20:22.617Z,33.75
2018-05-01T04:21:22.601Z,39.38
2018-05-01T04:22:22.579Z,39.38
2018-05-01T04:23:22.568Z,39.38
2018-05-01T04:24:22.549Z,45.00
2018-05-01T04:25:22.630Z,39.38
2018-05-01T04:26:22.515Z,39.38
2018-05-01T04:27:22.513Z,45.00
2018-05-01T04:28:22.481Z,45.00
2018-05-01T04:29:22.472Z,50.63
2018-05-01T04:30:22.454Z,50.63
2018-05-01T04:31:22.435Z,50.63
2018-05-01T04:32:22.425Z,50.63
2018-05-01T04:33:22.404Z,56.25
2018-05-01T04:34:22.388Z,61.88
2018-05-01T04:35:22.375Z,67.50
2018-05-01T04:36:22.360Z,73.13
2018-05-01T04:37:22.341Z,84.38
2018-05-01T04:38:22.325Z,95.63
2018-05-01T04:39:22.314Z,106.88
2018-05-01T04:40:22.295Z,101.25
2018-05-01T04:41:22.283Z,95.63
2018-05-01T04:42:22.262Z,101.25
2018-05-01T04:43:22.249Z,106.88
2018-05-01T04:44:22.232Z,106.88
2018-05-01T04:45:22.216Z,106.88
2018-05-01T04:46:22.200Z,106.88
2018-05-01T04:47:22.181Z,112.50
2018-05-01T04:48:22.168Z,118.13
2018-05-01T04:49:22.152Z,112.50
2018-05-01T04:50:22.137Z,118.13
2018-05-01T04:51:22.128Z,112.50
2018-05-01T04:52:22.106Z,112.50
2018-05-01T04:53:22.091Z,123.75
2018-05-01T04:54:22.076Z,129.38
2018-05-01T04:55:22.058Z,135.00
2018-05-01T04:56:22.046Z,135.00
2018-05-01T04:57:22.028Z,140.63
2018-05-01T04:58:22.014Z,140.63
2018-05-01T04:59:21.996Z,140.63
2018-05-01T05:00:21.986Z,123.75
2018-05-01T05:01:21.969Z,135.00
2018-05-01T05:02:21.950Z,123.75
2018-05-01T05:03:21.937Z,123.75
2018-05-01T05:04:21.918Z,140.63
2018-05-01T05:05:21.902Z,157.50
2018-05-01T05:06:21.894Z,163.13
2018-05-01T05:07:21.871Z,157.50
2018-05-01T05:08:21.860Z,157.50
2018-05-01T05:09:21.841Z,163.13
2018-05-01T05:10:21.825Z,168.75
2018-05-01T05:11:21.861Z,174.38
2018-05-01T05:12:21.794Z,180.00
2018-05-01T05:13:21.781Z,185.63
2018-05-01T05:14:21.767Z,185.63
2018-05-01T05:15:21.748Z,191.25
2018-05-01T05:16:21.733Z,202.50
2018-05-01T05:17:21.719Z,202.50
2018-05-01T05:18:21.701Z,208.13
2018-05-01T05:19:21.691Z,208.13
2018-05-01T05:20:24.292Z,219.38
2018-05-01T05:21:21.660Z,230.63
2018-05-01T05:22:21.641Z,236.25
2018-05-01T05:23:21.630Z,241.88
2018-05-01T05:24:21.616Z,225.00
2018-05-01T05:25:21.595Z,208.13
2018-05-01T05:26:21.583Z,208.13
2018-05-01T05:27:21.564Z,213.75
2018-05-01T05:28:21.551Z,230.63
2018-05-01T05:29:21.535Z,241.88
2018-05-01T05:30:21.520Z,258.75
2018-05-01T05:31:21.509Z,264.38
2018-05-01T05:32:21.496Z,258.75
2018-05-01T05:33:21.474Z,247.50
2018-05-01T05:34:21.458Z,236.25
2018-05-01T05:35:21.446Z,253.13
2018-05-01T05:36:21.460Z,270.00
2018-05-01T05:37:21.413Z,275.63
2018-05-01T05:38:21.399Z,258.75
2018-05-01T05:39:21.383Z,241.88
2018-05-01T05:40:21.368Z,236.25
2018-05-01T05:41:21.357Z,230.63
2018-05-01T05:42:21.338Z,213.75
2018-05-01T05:43:21.324Z,208.13
2018-05-01T05:44:21.310Z,213.75
2018-05-01T05:45:21.297Z,213.75
2018-05-01T05:46:21.278Z,208.13
2018-05-01T05:47:21.267Z,202.50
2018-05-01T05:48:21.251Z,196.88
2018-05-01T05:49:21.235Z,191.25
2018-05-01T05:50:21.220Z,180.00
2018-05-01T05:51:21.205Z,157.50
2018-05-01T05:52:21.193Z,146.25
2018-05-01T05:53:21.175Z,146.25
2018-05-01T05:54:21.177Z,163.13
2018-05-01T05:55:21.146Z,163.13
2018-05-01T05:56:21.131Z,168.75
2018-05-01T05:57:21.115Z,180.00
2018-05-01T05:58:21.100Z,180.00
2018-05-01T05:59:21.086Z,180.00
2018-05-01T06:00:21.073Z,180.00
2018-05-01T06:01:21.067Z,180.00
2018-05-01T06:02:21.042Z,151.88
2018-05-01T06:03:21.026Z,151.88
2018-05-01T06:04:21.012Z,151.88
2018-05-01T06:05:20.997Z,151.88
2018-05-01T06:06:20.982Z,151.88
2018-05-01T06:07:20.972Z,151.88
2018-05-01T06:08:20.956Z,157.50
2018-05-01T06:09:20.936Z,151.88
2018-05-01T06:10:20.923Z,163.13
2018-05-01T06:11:20.921Z,180.00
2018-05-01T06:12:20.898Z,157.50
2018-05-01T06:13:20.876Z,180.00
2018-05-01T06:14:20.860Z,174.38
2018-05-01T06:15:20.846Z,163.13
2018-05-01T06:16:20.831Z,163.13
2018-05-01T06:17:20.815Z,185.63
2018-05-01T06:18:20.855Z,196.88
2018-05-01T06:19:20.806Z,191.25
2018-05-01T06:20:20.771Z,196.88
2018-05-01T06:21:20.755Z,196.88
2018-05-01T06:22:20.739Z,202.50
2018-05-01T06:23:20.725Z,202.50
2018-05-01T06:24:20.709Z,191.25
2018-05-01T06:25:20.691Z,185.63
2018-05-01T06:26:20.676Z,185.63
2018-05-01T06:27:20.662Z,191.25
2018-05-01T06:28:20.646Z,202.50
2018-05-01T06:29:20.632Z,219.38
2018-05-01T06:30:20.628Z,213.75
2018-05-01T06:31:20.664Z,208.13
2018-05-01T06:32:20.585Z,219.38
2018-05-01T06:33:20.571Z,213.75
2018-05-01T06:34:20.559Z,208.13
2018-05-01T06:35:20.549Z,213.75
2018-05-01T06:36:20.577Z,208.13
2018-05-01T06:37:20.528Z,163.13
2018-05-01T06:38:20.496Z,196.88
2018-05-01T06:39:20.477Z,208.13
2018-05-01T06:40:20.475Z,225.00
2018-05-01T06:41:20.451Z,196.88
2018-05-01T06:42:20.433Z,180.00
2018-05-01T06:43:20.421Z,225.00
2018-05-01T06:44:20.407Z,219.38
2018-05-01T06:45:20.389Z,225.00
2018-05-01T06:46:20.374Z,270.00
2018-05-01T06:47:20.361Z,225.00
2018-05-01T06:48:20.344Z,163.13
2018-05-01T06:49:20.332Z,208.13
2018-05-01T06:50:20.315Z,202.50
2018-05-01T06:51:20.302Z,219.38
2018-05-01T06:52:20.285Z,219.38
2018-05-01T06:53:20.269Z,219.38
2018-05-01T06:54:20.257Z,219.38
2018-05-01T06:55:20.240Z,241.88
2018-05-01T06:56:20.226Z,236.25
2018-05-01T06:57:20.209Z,225.00
2018-05-01T06:58:20.211Z,230.63
2018-05-01T06:59:20.179Z,225.00
2018-05-01T07:00:20.165Z,236.25
2018-05-01T07:01:20.153Z,298.13
2018-05-01T07:02:20.136Z,196.88
2018-05-01T07:03:20.124Z,241.88
2018-05-01T07:04:20.201Z,247.50
2018-05-01T07:05:20.095Z,258.75
2018-05-01T07:06:20.081Z,292.50
2018-05-01T07:07:20.063Z,281.25
2018-05-01T07:08:20.047Z,286.88
2018-05-01T07:09:20.033Z,309.38
2018-05-01T07:10:20.106Z,337.50
2018-05-01T07:11:20.002Z,489.38
2018-05-01T07:12:19.993Z,320.63
2018-05-01T07:13:19.975Z,2272.50
2018-05-01T07:14:19.964Z,2891.25
2018-05-01T07:15:19.947Z,2829.38
2018-05-01T07:16:19.934Z,298.13
2018-05-01T07:17:19.918Z,1665.00
2018-05-01T07:18:19.903Z,1940.63
2018-05-01T07:19:19.890Z,2086.88
2018-05-01T07:20:19.878Z,1057.50
2018-05-01T07:21:19.884Z,2120.63
2018-05-01T07:22:19.852Z,1867.50
2018-05-01T07:23:19.839Z,2205.00
2018-05-01T07:24:19.824Z,1293.75
2018-05-01T07:25:19.813Z,1428.75
2018-05-01T07:26:19.806Z,990.00
2018-05-01T07:27:19.790Z,1186.88
2018-05-01T07:28:19.778Z,1215.00
2018-05-01T07:29:19.771Z,1254.38
2018-05-01T07:30:19.753Z,1035.00
2018-05-01T07:31:19.744Z,871.88
2018-05-01T07:32:19.732Z,759.38
2018-05-01T07:33:19.717Z,658.13
2018-05-01T07:34:19.707Z,680.63
2018-05-01T07:35:19.701Z,607.50
2018-05-01T07:36:19.684Z,556.88
2018-05-01T07:37:19.669Z,613.13
2018-05-01T07:38:19.660Z,545.63
2018-05-01T07:39:19.660Z,826.88
2018-05-01T07:40:19.644Z,939.38
2018-05-01T07:41:19.624Z,2193.75
2018-05-01T07:42:19.612Z,888.75
2018-05-01T07:43:19.604Z,1721.25
2018-05-01T07:44:19.595Z,663.75
2018-05-01T07:45:19.577Z,849.38
2018-05-01T07:46:19.563Z,860.63
2018-05-01T07:47:19.558Z,860.63
2018-05-01T07:48:19.544Z,866.25
2018-05-01T07:49:19.529Z,849.38
2018-05-01T07:50:19.516Z,860.63
2018-05-01T07:51:19.511Z,967.50
2018-05-01T07:52:19.499Z,1074.38
2018-05-01T07:53:19.482Z,821.25
2018-05-01T07:54:19.471Z,765.00
2018-05-01T07:55:19.460Z,731.25
2018-05-01T07:56:19.449Z,652.50
2018-05-01T07:57:19.439Z,686.25
2018-05-01T07:58:19.427Z,810.00
2018-05-01T07:59:19.415Z,922.50
2018-05-01T08:00:19.432Z,1001.25
2018-05-01T08:01:19.396Z,978.75
2018-05-01T08:02:19.386Z,1035.00
2018-05-01T08:03:19.371Z,1057.50
2018-05-01T08:04:19.358Z,1119.38
2018-05-01T08:05:19.349Z,1080.00
2018-05-01T08:06:19.337Z,1091.25
2018-05-01T08:07:19.330Z,1085.63
2018-05-01T08:08:19.315Z,1068.75
2018-05-01T08:09:19.303Z,1085.63
2018-05-01T08:10:19.296Z,1198.13
2018-05-01T08:11:19.288Z,1175.63
2018-05-01T08:12:19.278Z,1271.25
2018-05-01T08:13:19.270Z,1383.75
2018-05-01T08:14:20.861Z,1248.75
2018-05-01T08:15:20.850Z,1276.88
2018-05-01T08:16:20.840Z,1231.88
2018-05-01T08:17:20.829Z,1046.25
2018-05-01T08:18:20.817Z,871.88
2018-05-01T08:19:20.807Z,1440.00
2018-05-01T08:20:20.798Z,860.63
2018-05-01T08:21:20.789Z,826.88
2018-05-01T08:22:20.775Z,804.38
2018-05-01T08:23:20.761Z,753.75
2018-05-01T08:24:20.758Z,776.25
2018-05-01T08:25:20.737Z,759.38
2018-05-01T08:26:20.731Z,691.88
2018-05-01T08:27:20.715Z,939.38
2018-05-01T08:28:20.704Z,691.88
2018-05-01T08:29:20.700Z,540.00
2018-05-01T08:30:20.696Z,556.88
2018-05-01T08:31:20.674Z,652.50
2018-05-01T08:32:20.660Z,697.50
2018-05-01T08:33:20.650Z,691.88
2018-05-01T08:34:20.642Z,663.75
2018-05-01T08:35:20.625Z,686.25
2018-05-01T08:36:20.619Z,798.75
2018-05-01T08:37:20.602Z,753.75
2018-05-01T08:38:20.590Z,725.63
2018-05-01T08:39:20.578Z,686.25
2018-05-01T08:40:20.565Z,675.00
2018-05-01T08:41:20.556Z,680.63
2018-05-01T08:42:20.543Z,669.38
2018-05-01T08:43:20.531Z,613.13
2018-05-01T08:44:20.524Z,517.50
2018-05-01T08:45:20.513Z,517.50
2018-05-01T08:46:20.519Z,573.75
2018-05-01T08:47:20.480Z,556.88
2018-05-01T08:48:20.469Z,585.00
2018-05-01T08:49:20.461Z,798.75
2018-05-01T08:50:20.445Z,2334.38
2018-05-01T08:51:20.435Z,3341.25
2018-05-01T08:52:20.420Z,2750.63
2018-05-01T08:53:20.406Z,2058.75
2018-05-01T08:54:20.396Z,2728.13
2018-05-01T08:55:20.383Z,1833.75
2018-05-01T08:56:20.371Z,1698.75
2018-05-01T08:57:20.424Z,1237.50
2018-05-01T08:58:20.349Z,1687.50
2018-05-01T08:59:20.339Z,1665.00
2018-05-01T09:00:20.324Z,1361.25
2018-05-01T09:01:20.313Z,1591.88
2018-05-01T09:02:20.310Z,2491.88
2018-05-01T09:03:20.294Z,1833.75
2018-05-01T09:04:20.278Z,1749.38
2018-05-01T09:05:20.269Z,2446.88
2018-05-01T09:06:20.257Z,2171.25
2018-05-01T09:07:20.246Z,2413.13
2018-05-01T09:08:20.234Z,2418.75
2018-05-01T09:09:20.224Z,2193.75
2018-05-01T09:10:20.214Z,2081.25
2018-05-01T09:11:20.208Z,3228.75
2018-05-01T09:12:20.191Z,3650.63
2018-05-01T09:13:20.182Z,4410.00
2018-05-01T09:14:20.171Z,4629.38
2018-05-01T09:15:20.160Z,4488.75
2018-05-01T09:16:20.156Z,3150.00
2018-05-01T09:17:20.150Z,3076.88
2018-05-01T09:18:20.314Z,3240.00
2018-05-01T09:19:20.128Z,1648.13
2018-05-01T09:20:20.115Z,1535.63
2018-05-01T09:21:20.105Z,1546.88
2018-05-01T09:22:20.102Z,1158.75
2018-05-01T09:23:20.089Z,1361.25
2018-05-01T09:24:20.090Z,1648.13
2018-05-01T09:25:20.071Z,1243.13
2018-05-01T09:26:20.063Z,2176.88
2018-05-01T09:27:20.054Z,1428.75
2018-05-01T09:28:20.043Z,2671.88
2018-05-01T09:29:20.034Z,1794.38
2018-05-01T09:30:20.029Z,3836.25
2018-05-01T09:31:20.027Z,5878.13
2018-05-01T09:32:20.014Z,2070.00
2018-05-01T09:33:20.005Z,4865.63
2018-05-01T09:34:19.995Z,6288.75
2018-05-01T09:35:20.078Z,4927.50
2018-05-01T09:36:19.979Z,6525.00
2018-05-01T09:37:19.974Z,6907.50
2018-05-01T09:38:19.969Z,6811.88
2018-05-01T09:39:19.958Z,6851.25
2018-05-01T09:40:19.952Z,5731.88
2018-05-01T09:41:19.946Z,7261.88
2018-05-01T09:42:19.941Z,7290.00
2018-05-01T09:43:19.933Z,3110.63
2018-05-01T09:44:19.933Z,5866.88
2018-05-01T09:45:19.929Z,7475.63
2018-05-01T09:46:19.918Z,7363.13
2018-05-01T09:47:19.917Z,7503.75
2018-05-01T09:48:19.915Z,2925.00
2018-05-01T09:49:19.903Z,2936.25
2018-05-01T09:50:19.902Z,7796.25
2018-05-01T09:51:19.902Z,5889.38
2018-05-01T09:52:19.897Z,2103.75
2018-05-01T09:53:19.898Z,4573.13
2018-05-01T09:54:19.885Z,5366.25
2018-05-01T09:55:19.890Z,6907.50
2018-05-01T09:56:19.880Z,6862.50
2018-05-01T09:57:19.877Z,6733.13
2018-05-01T09:58:19.874Z,6508.13
2018-05-01T09:59:19.871Z,4966.88
2018-05-01T10:00:19.867Z,3076.88
2018-05-01T10:01:19.867Z,2486.25
2018-05-01T10:02:19.864Z,2379.38
2018-05-01T10:03:19.862Z,2323.13
2018-05-01T10:04:19.859Z,2300.63
2018-05-01T10:05:19.854Z,2238.75
2018-05-01T10:06:19.855Z,2227.50
2018-05-01T10:07:19.851Z,2227.50
2018-05-01T10:08:19.852Z,2188.13
2018-05-01T10:09:19.850Z,2176.88
2018-05-01T10:10:19.851Z,2148.75
2018-05-01T10:11:19.846Z,2171.25
2018-05-01T10:12:19.953Z,2171.25
2018-05-01T10:13:19.841Z,2154.38
2018-05-01T10:14:19.844Z,2160.00
2018-05-01T10:15:19.840Z,2176.88
2018-05-01T10:16:19.840Z,2143.13
2018-05-01T10:17:19.843Z,2098.13
2018-05-01T10:18:19.839Z,2098.13
2018-05-01T10:19:19.837Z,2053.13
2018-05-01T10:20:19.836Z,2019.38
2018-05-01T10:21:19.837Z,2013.75
2018-05-01T10:22:19.834Z,2013.75
2018-05-01T10:23:19.844Z,2030.63
2018-05-01T10:24:19.832Z,2064.38
2018-05-01T10:25:19.833Z,2086.88
2018-05-01T10:26:19.844Z,2092.50
2018-05-01T10:27:19.832Z,2070.00
2018-05-01T10:28:19.831Z,1951.88
2018-05-01T10:29:19.832Z,1681.88
2018-05-01T10:30:19.836Z,1693.13
2018-05-01T10:31:19.833Z,1726.88
2018-05-01T10:32:19.830Z,1732.50
2018-05-01T10:33:19.831Z,1721.25
2018-05-01T10:34:19.831Z,1681.88
2018-05-01T10:35:19.831Z,1614.38
2018-05-01T10:36:19.840Z,905.63
2018-05-01T10:37:19.830Z,1535.63
2018-05-01T10:38:19.830Z,1462.50
2018-05-01T10:39:19.832Z,1445.63
2018-05-01T10:40:19.830Z,1383.75
2018-05-01T10:41:19.834Z,1411.88
2018-05-01T10:42:19.832Z,1383.75
2018-05-01T10:43:19.831Z,1389.38
2018-05-01T10:44:19.834Z,1395.00
2018-05-01T10:45:19.831Z,1479.38
2018-05-01T10:46:19.839Z,1597.50
2018-05-01T10:47:19.834Z,1687.50
2018-05-01T10:48:19.834Z,1794.38
2018-05-01T10:49:19.896Z,1895.63
2018-05-01T10:50:19.835Z,2036.25
2018-05-01T10:51:19.833Z,2109.38
2018-05-01T10:52:19.835Z,2098.13
2018-05-01T10:53:19.833Z,2075.63
2018-05-01T10:54:19.835Z,2086.88
2018-05-01T10:55:19.837Z,2070.00
2018-05-01T10:56:19.835Z,2041.88
2018-05-01T10:57:19.840Z,2053.13
2018-05-01T10:58:19.843Z,2047.50
2018-05-01T10:59:19.841Z,2047.50
2018-05-01T11:00:19.839Z,2070.00
2018-05-01T11:01:19.840Z,2109.38
2018-05-01T11:02:19.849Z,2075.63
2018-05-01T11:03:19.841Z,1991.25
2018-05-01T11:04:19.847Z,1968.75
2018-05-01T11:05:19.841Z,1985.63
2018-05-01T11:06:19.844Z,1991.25
2018-05-01T11:07:19.849Z,1974.38
2018-05-01T11:08:19.889Z,1940.63
2018-05-01T11:09:19.843Z,1974.38
2018-05-01T11:10:19.845Z,1980.00
2018-05-01T11:11:19.850Z,1957.50
2018-05-01T11:12:19.849Z,1918.13
2018-05-01T11:13:19.847Z,1946.25
2018-05-01T11:14:19.848Z,1968.75
2018-05-01T11:15:19.849Z,1951.88
2018-05-01T11:16:19.850Z,1918.13
2018-05-01T11:17:19.856Z,1974.38
2018-05-01T11:18:19.859Z,1951.88
2018-05-01T11:19:19.862Z,1940.63
2018-05-01T11:20:19.851Z,1940.63
2018-05-01T11:21:19.855Z,1788.75
2018-05-01T11:22:19.856Z,1518.75
2018-05-01T11:23:19.860Z,1400.63
2018-05-01T11:24:19.853Z,1276.88
2018-05-01T11:25:19.854Z,1068.75
2018-05-01T11:26:19.951Z,1040.63
2018-05-01T11:27:19.858Z,1012.50
2018-05-01T11:28:19.856Z,1018.13
2018-05-01T11:29:19.860Z,995.63
2018-05-01T11:30:19.857Z,995.63
2018-05-01T11:31:19.857Z,995.63
2018-05-01T11:32:19.858Z,995.63
2018-05-01T11:33:19.863Z,1006.88
2018-05-01T11:34:19.862Z,1018.13
2018-05-01T11:35:19.863Z,1029.38
2018-05-01T11:36:19.860Z,1051.88
2018-05-01T11:37:19.870Z,1119.38
2018-05-01T11:38:19.864Z,1113.75
2018-05-01T11:39:19.864Z,1108.13
2018-05-01T11:40:19.864Z,1130.63
2018-05-01T11:41:19.865Z,1108.13
2018-05-01T11:42:19.873Z,1108.13
2018-05-01T11:43:19.867Z,1091.25
2018-05-01T11:44:19.866Z,1085.63
2018-05-01T11:45:19.865Z,1080.00
2018-05-01T11:46:19.947Z,1074.38
2018-05-01T11:47:19.873Z,1063.13
2018-05-01T11:48:19.875Z,1068.75
2018-05-01T11:49:19.870Z,1074.38
2018-05-01T11:50:19.870Z,1068.75
2018-05-01T11:51:19.869Z,1102.50
2018-05-01T11:52:19.922Z,1068.75
2018-05-01T11:53:19.874Z,1068.75
2018-05-01T11:54:19.874Z,1057.50
2018-05-01T11:55:19.873Z,1063.13
2018-05-01T11:56:19.873Z,1108.13
2018-05-01T11:57:19.876Z,1108.13
2018-05-01T11:58:19.874Z,1136.25
2018-05-01T11:59:19.874Z,1057.50
2018-05-01T12:00:19.884Z,1091.25
2018-05-01T12:01:19.878Z,1411.88
2018-05-01T12:02:19.880Z,2919.38
2018-05-01T12:03:19.878Z,4618.13
2018-05-01T12:04:19.880Z,5231.25
2018-05-01T12:05:19.879Z,5242.50
2018-05-01T12:06:19.880Z,5501.25
2018-05-01T12:07:19.883Z,5608.13
2018-05-01T12:08:19.878Z,5658.75
2018-05-01T12:09:19.883Z,5799.38
2018-05-01T12:10:19.878Z,5776.88
2018-05-01T12:11:19.878Z,5793.75
2018-05-01T12:12:19.882Z,5883.75
2018-05-01T12:13:19.880Z,5692.50
2018-05-01T12:14:19.881Z,5484.38
2018-05-01T12:15:19.881Z,5028.75
2018-05-01T12:16:19.880Z,5090.63
2018-05-01T12:17:19.881Z,5158.13
2018-05-01T12:18:19.885Z,4843.13
2018-05-01T12:19:19.886Z,4561.88
2018-05-01T12:20:19.881Z,4387.50
2018-05-01T12:21:19.883Z,4590.00
2018-05-01T12:22:19.884Z,4933.13
2018-05-01T12:23:19.884Z,5062.50
2018-05-01T12:24:19.892Z,5265.00
2018-05-01T12:25:19.886Z,5186.25
2018-05-01T12:26:19.888Z,5096.25
2018-05-01T12:27:19.890Z,4601.25
2018-05-01T12:28:19.885Z,5439.38
2018-05-01T12:29:19.886Z,646.88
2018-05-01T12:30:19.899Z,1333.13
2018-05-01T12:31:19.886Z,1636.88
2018-05-01T12:32:19.891Z,5647.50
2018-05-01T12:33:19.883Z,821.25
2018-05-01T12:34:19.894Z,579.38
2018-05-01T12:35:19.892Z,489.38
2018-05-01T12:36:19.890Z,1254.38